createdAt,value
2022-07-29T00:00:35.976Z,23.10
2022-07-29T00:03:39.101Z,23.10
2022-07-29T00:06:43.666Z,23.10
2022-07-29T00:09:51.034Z,23.10
2022-07-29T00:12:55.410Z,23.10
2022-07-29T00:16:04.422Z,23.20
2022-07-29T00:19:08.241Z,23.20
2022-07-29T00:22:11.392Z,23.10
2022-07-29T00:25:15.126Z,23.00
2022-07-29T00:28:18.231Z,23.10
2022-07-29T00:31:22.879Z,23.00
2022-07-29T00:34:43.261Z,23.00
2022-07-29T00:37:46.573Z,23.00
2022-07-29T00:40:49.906Z,23.00
2022-07-29T00:43:52.988Z,23.00
2022-07-29T00:46:57.537Z,23.00
2022-07-29T00:50:00.720Z,23.00
2022-07-29T00:53:04.870Z,23.00
2022-07-29T00:56:08.068Z,23.00
2022-07-29T00:59:11.211Z,23.00
2022-07-29T01:02:15.747Z,23.00
2022-07-29T01:05:23.275Z,22.90
2022-07-29T01:08:26.461Z,23.00
2022-07-29T01:11:29.918Z,22.90
2022-07-29T01:14:33.733Z,22.90
2022-07-29T01:17:52.723Z,22.90
2022-07-29T01:21:26.775Z,22.90
2022-07-29T01:24:52.572Z,22.80
2022-07-29T01:28:13.123Z,22.80
2022-07-29T01:31:25.055Z,22.70
2022-07-29T01:34:45.197Z,22.70
2022-07-29T01:37:54.087Z,22.70
2022-07-29T01:41:05.001Z,22.70
2022-07-29T01:44:17.855Z,22.70
2022-07-29T01:47:28.674Z,22.70
2022-07-29T01:50:36.494Z,22.70
2022-07-29T01:53:46.120Z,22.60
2022-07-29T01:56:53.093Z,22.50
2022-07-29T01:59:58.109Z,22.50
2022-07-29T02:03:07.589Z,22.40
2022-07-29T02:06:13.467Z,22.40
2022-07-29T02:09:17.784Z,22.40
2022-07-29T02:12:23.114Z,22.40
2022-07-29T02:15:27.801Z,22.40
2022-07-29T02:18:33.023Z,22.30
2022-07-29T02:21:37.416Z,22.20
2022-07-29T02:24:42.454Z,22.20
2022-07-29T02:27:46.659Z,22.20
2022-07-29T02:30:52.593Z,22.10
2022-07-29T02:33:58.110Z,22.10
2022-07-29T02:37:01.959Z,22.10
2022-07-29T02:40:06.247Z,22.00
2022-07-29T02:43:11.255Z,22.00
2022-07-29T02:46:29.088Z,21.90
2022-07-29T02:49:45.373Z,21.90
2022-07-29T02:52:54.859Z,21.90
2022-07-29T02:56:03.861Z,21.90
2022-07-29T02:59:12.140Z,21.90
2022-07-29T03:02:16.667Z,21.90
2022-07-29T03:05:23.017Z,21.80
2022-07-29T03:08:27.001Z,21.70
2022-07-29T03:11:42.203Z,21.70
2022-07-29T03:14:52.648Z,21.70
2022-07-29T03:17:56.709Z,21.50
2022-07-29T03:21:01.451Z,21.50
2022-07-29T03:24:10.077Z,21.50
2022-07-29T03:27:13.989Z,21.40
2022-07-29T03:30:20.367Z,21.40
2022-07-29T03:33:25.488Z,21.40
2022-07-29T03:36:30.054Z,21.40
2022-07-29T03:39:38.685Z,21.40
2022-07-29T03:42:45.734Z,21.40
2022-07-29T03:45:51.935Z,21.40
2022-07-29T03:49:00.595Z,21.40
2022-07-29T03:52:06.256Z,21.30
2022-07-29T03:55:10.647Z,21.30
2022-07-29T03:58:15.242Z,21.20
2022-07-29T04:01:19.221Z,21.20
2022-07-29T04:04:22.567Z,21.20
2022-07-29T04:07:27.372Z,21.20
2022-07-29T04:10:31.920Z,21.10
2022-07-29T04:13:37.173Z,21.10
2022-07-29T04:16:40.281Z,21.10
2022-07-29T04:19:43.411Z,21.10
2022-07-29T04:22:47.897Z,21.20
2022-07-29T04:25:51.099Z,21.10
2022-07-29T04:28:54.202Z,21.10
2022-07-29T04:31:57.423Z,21.20
2022-07-29T04:35:00.550Z,21.20
2022-07-29T04:38:05.952Z,21.30
2022-07-29T04:41:09.374Z,21.50
2022-07-29T04:44:14.449Z,21.60
2022-07-29T04:47:17.814Z,21.80
2022-07-29T04:50:20.959Z,21.90
2022-07-29T04:53:25.491Z,22.00
2022-07-29T04:56:28.727Z,22.20
2022-07-29T04:59:31.830Z,22.20
2022-07-29T05:02:34.958Z,22.30
2022-07-29T05:05:38.115Z,22.50
2022-07-29T05:08:42.909Z,22.60
2022-07-29T05:11:46.082Z,22.80
2022-07-29T05:14:49.179Z,22.90
2022-07-29T05:17:52.290Z,23.00
2022-07-29T05:20:55.363Z,23.10
2022-07-29T05:23:59.893Z,23.20
2022-07-29T05:27:02.989Z,23.30
2022-07-29T05:30:07.066Z,23.50
2022-07-29T05:33:36.199Z,23.60
2022-07-29T05:36:33.304Z,23.70
2022-07-29T05:39:48.526Z,23.90
2022-07-29T05:42:53.943Z,24.10
2022-07-29T05:45:57.254Z,24.20
2022-07-29T05:49:00.471Z,24.30
2022-07-29T05:52:03.749Z,24.60
2022-07-29T05:55:09.039Z,24.80
2022-07-29T05:58:12.247Z,25.10
2022-07-29T06:01:15.395Z,25.40
2022-07-29T06:04:18.913Z,25.90
2022-07-29T06:07:22.669Z,26.20
2022-07-29T06:10:27.925Z,26.60
2022-07-29T06:13:31.317Z,27.00
2022-07-29T06:16:34.449Z,27.40
2022-07-29T06:19:37.743Z,27.60
2022-07-29T06:22:40.859Z,28.00
2022-07-29T06:25:45.353Z,28.50
2022-07-29T06:28:48.446Z,28.80
2022-07-29T06:31:53.419Z,29.30
2022-07-29T06:35:11.845Z,29.80
2022-07-29T06:38:31.071Z,30.30
2022-07-29T06:41:38.700Z,30.80
2022-07-29T06:44:42.894Z,31.30
2022-07-29T06:47:46.024Z,31.80
2022-07-29T06:50:49.868Z,32.30
2022-07-29T06:54:00.168Z,32.90
2022-07-29T06:57:06.956Z,33.80
2022-07-29T07:00:11.398Z,34.50
2022-07-29T07:03:14.813Z,34.80
2022-07-29T07:06:17.965Z,34.90
2022-07-29T07:09:21.054Z,35.50
2022-07-29T07:12:26.249Z,35.60
2022-07-29T07:15:38.958Z,35.60
2022-07-29T07:18:43.166Z,35.70
2022-07-29T07:21:46.243Z,34.80
2022-07-29T07:24:49.323Z,34.30
2022-07-29T07:27:53.824Z,35.20
2022-07-29T07:30:57.523Z,36.30
2022-07-29T07:34:00.656Z,37.70
2022-07-29T07:37:03.780Z,38.20
2022-07-29T07:40:07.856Z,38.60
2022-07-29T07:43:12.276Z,39.30
2022-07-29T07:46:15.648Z,40.40
2022-07-29T07:49:18.856Z,41.10
2022-07-29T07:52:24.023Z,41.90
2022-07-29T07:55:27.862Z,42.90
2022-07-29T07:58:32.484Z,43.50
2022-07-29T08:01:48.112Z,44.20
2022-07-29T08:04:58.952Z,44.10
2022-07-29T08:08:02.094Z,45.00
2022-07-29T08:11:09.564Z,45.60
2022-07-29T08:14:15.136Z,45.70
2022-07-29T08:17:18.387Z,46.00
2022-07-29T08:20:21.922Z,43.30
2022-07-29T08:23:25.585Z,42.50
2022-07-29T08:26:28.747Z,42.60
2022-07-29T08:29:33.266Z,41.90
2022-07-29T08:32:53.080Z,40.10
2022-07-29T08:35:56.608Z,39.70
2022-07-29T08:39:00.026Z,39.60
2022-07-29T08:42:03.252Z,39.30
2022-07-29T08:45:09.264Z,39.10
2022-07-29T08:48:13.470Z,38.40
2022-07-29T08:51:17.931Z,38.10
2022-07-29T08:54:23.396Z,37.60
2022-07-29T08:57:27.736Z,37.20
2022-07-29T09:00:32.295Z,36.80
2022-07-29T09:03:38.611Z,36.30
2022-07-29T09:06:46.433Z,35.40
2022-07-29T09:09:50.045Z,34.10
2022-07-29T09:12:53.545Z,33.20
2022-07-29T09:15:58.089Z,32.70
2022-07-29T09:19:01.233Z,32.10
2022-07-29T09:22:06.695Z,31.40
2022-07-29T09:25:10.190Z,31.00
2022-07-29T09:28:15.289Z,30.60
2022-07-29T09:31:19.848Z,30.50
2022-07-29T09:34:27.487Z,30.30
2022-07-29T09:37:30.956Z,30.20
2022-07-29T09:40:34.064Z,30.10
2022-07-29T09:43:38.773Z,30.00
2022-07-29T09:46:54.493Z,30.00
2022-07-29T09:49:59.287Z,29.90
2022-07-29T09:53:02.535Z,29.80
2022-07-29T09:56:06.750Z,29.80
2022-07-29T09:59:12.257Z,30.20
2022-07-29T10:02:23.748Z,30.40
2022-07-29T10:05:36.092Z,30.60
2022-07-29T10:08:40.187Z,30.60
2022-07-29T10:11:48.984Z,30.40
2022-07-29T10:14:53.712Z,30.20
2022-07-29T10:17:59.230Z,30.20
2022-07-29T10:21:02.952Z,30.10
2022-07-29T10:24:07.369Z,29.60
2022-07-29T10:27:18.450Z,29.60
2022-07-29T10:30:22.966Z,29.50
2022-07-29T10:33:47.512Z,29.40
2022-07-29T10:36:58.916Z,29.40
2022-07-29T10:40:24.564Z,29.30
2022-07-29T10:43:33.832Z,29.20
2022-07-29T10:46:38.627Z,29.10
2022-07-29T10:49:58.345Z,29.10
2022-07-29T10:53:08.744Z,29.20
2022-07-29T10:56:26.962Z,29.30
2022-07-29T10:59:36.552Z,29.40
2022-07-29T11:02:54.407Z,29.60
2022-07-29T11:06:00.192Z,30.00
2022-07-29T11:09:20.491Z,30.50
2022-07-29T11:12:50.393Z,30.90
2022-07-29T11:15:56.901Z,31.20
2022-07-29T11:19:29.917Z,31.50
2022-07-29T11:22:37.083Z,31.70
2022-07-29T11:29:43.088Z,32.40
2022-07-29T11:36:16.808Z,33.20
2022-07-29T11:39:37.180Z,33.40
2022-07-29T11:42:48.069Z,33.60
2022-07-29T11:45:54.970Z,33.80
2022-07-29T11:48:58.574Z,33.90
2022-07-29T11:52:03.869Z,33.80
2022-07-29T11:55:10.278Z,33.70
2022-07-29T11:58:13.577Z,33.50
2022-07-29T12:01:19.647Z,33.40
2022-07-29T12:04:24.525Z,33.30
2022-07-29T12:07:01.385Z,32.30
2022-07-29T12:07:34.850Z,33.10
2022-07-29T12:10:40.397Z,33.00
2022-07-29T12:13:43.495Z,32.90
2022-07-29T12:16:46.668Z,32.80
2022-07-29T12:19:50.956Z,32.60
2022-07-29T12:22:55.681Z,32.40
2022-07-29T12:26:00.539Z,32.30
2022-07-29T12:29:04.180Z,31.80
2022-07-29T12:32:19.638Z,31.50
2022-07-29T12:35:23.735Z,31.30
2022-07-29T12:38:27.325Z,31.20
2022-07-29T12:41:32.643Z,31.20
2022-07-29T12:44:49.097Z,31.30
2022-07-29T12:47:55.036Z,31.30
2022-07-29T12:50:59.896Z,31.50
2022-07-29T12:54:07.977Z,31.60
2022-07-29T12:57:19.871Z,31.60
2022-07-29T13:00:26.108Z,31.70
2022-07-29T13:03:29.464Z,31.70
2022-07-29T13:06:42.036Z,31.80
2022-07-29T13:09:49.365Z,31.90
2022-07-29T13:13:07.605Z,31.80
2022-07-29T13:16:11.621Z,31.60
2022-07-29T13:19:14.869Z,31.50
2022-07-29T13:22:19.806Z,31.40
2022-07-29T13:25:27.143Z,31.50
2022-07-29T13:28:31.596Z,31.50
2022-07-29T13:31:34.737Z,31.20
2022-07-29T13:34:37.864Z,31.10
2022-07-29T13:37:41.120Z,31.30
2022-07-29T13:40:44.721Z,31.40
2022-07-29T13:43:50.110Z,31.60
2022-07-29T13:46:53.285Z,31.90
2022-07-29T13:49:56.396Z,32.20
2022-07-29T13:52:59.526Z,32.30
2022-07-29T13:56:02.689Z,32.30
2022-07-29T13:59:07.245Z,32.20
2022-07-29T14:02:11.454Z,32.00
2022-07-29T14:05:14.568Z,31.90
2022-07-29T14:08:17.683Z,31.90
2022-07-29T14:11:20.845Z,31.80
2022-07-29T14:14:25.319Z,31.90
2022-07-29T14:17:28.498Z,32.10
2022-07-29T14:20:31.776Z,32.40
2022-07-29T14:23:35.021Z,32.50
2022-07-29T14:26:38.176Z,32.80
2022-07-29T14:29:42.757Z,32.80
2022-07-29T14:32:45.883Z,32.60
2022-07-29T14:35:49.466Z,32.50
2022-07-29T14:38:52.618Z,32.40
2022-07-29T14:41:56.131Z,32.50
2022-07-29T14:45:00.828Z,32.60
2022-07-29T14:48:04.021Z,32.70
2022-07-29T14:51:07.390Z,32.70
2022-07-29T14:54:11.355Z,32.80
2022-07-29T14:57:14.463Z,32.80
2022-07-29T15:00:20.212Z,32.80
2022-07-29T15:03:24.203Z,32.80
2022-07-29T15:06:27.759Z,32.80
2022-07-29T15:09:30.980Z,32.60
2022-07-29T15:12:34.339Z,32.60
2022-07-29T15:15:39.116Z,32.50
2022-07-29T15:18:42.640Z,32.40
2022-07-29T15:21:48.460Z,32.40
2022-07-29T15:25:02.733Z,32.40
2022-07-29T15:28:08.070Z,32.20
2022-07-29T15:31:12.663Z,32.00
2022-07-29T15:34:15.897Z,31.80
2022-07-29T15:37:19.067Z,31.60
2022-07-29T15:40:22.331Z,31.50
2022-07-29T15:43:26.558Z,31.30
2022-07-29T15:46:48.459Z,31.40
2022-07-29T15:49:51.635Z,31.50
2022-07-29T15:52:54.801Z,31.50
2022-07-29T15:55:57.953Z,31.50
2022-07-29T15:59:01.399Z,31.50
2022-07-29T16:02:06.148Z,31.50
2022-07-29T16:05:09.742Z,31.40
2022-07-29T16:08:12.901Z,31.40
2022-07-29T16:11:16.183Z,31.30
2022-07-29T16:14:19.783Z,31.20
2022-07-29T16:17:24.313Z,31.20
2022-07-29T16:20:27.435Z,31.10
2022-07-29T16:23:30.576Z,31.00
2022-07-29T16:26:34.496Z,30.90
2022-07-29T16:29:38.042Z,30.90
2022-07-29T16:32:42.582Z,30.80
2022-07-29T16:35:45.810Z,30.70
2022-07-29T16:38:49.416Z,30.60
2022-07-29T16:41:54.074Z,30.60
2022-07-29T16:44:59.064Z,30.50
2022-07-29T16:48:04.300Z,30.40
2022-07-29T16:51:09.783Z,30.40
2022-07-29T16:54:17.432Z,30.40
2022-07-29T16:57:20.626Z,30.30
2022-07-29T17:00:24.065Z,30.30
2022-07-29T17:03:28.563Z,30.20
2022-07-29T17:06:32.751Z,30.10
2022-07-29T17:09:35.926Z,29.90
2022-07-29T17:12:40.493Z,29.80
2022-07-29T17:15:44.202Z,29.70
2022-07-29T17:18:48.806Z,29.60
2022-07-29T17:21:51.913Z,29.40
2022-07-29T17:24:55.735Z,29.30
2022-07-29T17:28:01.162Z,29.20
2022-07-29T17:31:04.524Z,29.10
2022-07-29T17:34:09.447Z,29.00
2022-07-29T17:37:13.425Z,29.00
2022-07-29T17:40:16.680Z,29.00
2022-07-29T17:43:19.809Z,28.90
2022-07-29T17:46:24.843Z,28.80
2022-07-29T17:49:29.474Z,28.80
2022-07-29T17:52:32.647Z,28.70
2022-07-29T17:55:35.801Z,28.70
2022-07-29T17:58:39.742Z,28.60
2022-07-29T18:01:42.948Z,28.60
2022-07-29T18:04:50.587Z,28.50
2022-07-29T18:07:55.798Z,28.40
2022-07-29T18:10:58.947Z,28.30
2022-07-29T18:14:02.337Z,28.30
2022-07-29T18:17:05.691Z,28.20
2022-07-29T18:20:11.677Z,28.10
2022-07-29T18:23:15.600Z,28.00
2022-07-29T18:26:18.758Z,27.90
2022-07-29T18:29:22.091Z,27.80
2022-07-29T18:32:29.194Z,27.80
2022-07-29T18:35:34.189Z,27.70
2022-07-29T18:38:37.313Z,27.60
2022-07-29T18:41:50.684Z,27.60
2022-07-29T18:44:54.866Z,27.50
2022-07-29T18:47:58.051Z,27.40
2022-07-29T18:51:02.576Z,27.40
2022-07-29T18:54:12.657Z,27.30
2022-07-29T18:57:55.305Z,27.30
2022-07-29T19:00:39.007Z,27.20
2022-07-29T19:03:42.136Z,27.20
2022-07-29T19:06:46.850Z,27.20
2022-07-29T19:09:49.950Z,27.10
2022-07-29T19:12:53.127Z,27.00
2022-07-29T19:15:56.310Z,26.90
2022-07-29T19:19:01.032Z,26.90
2022-07-29T19:22:05.551Z,26.80
2022-07-29T19:25:09.939Z,26.80
2022-07-29T19:28:13.079Z,26.80
2022-07-29T19:31:16.458Z,26.70
2022-07-29T19:34:19.677Z,26.70
2022-07-29T19:37:24.205Z,26.70
2022-07-29T19:40:28.328Z,26.60
2022-07-29T19:43:51.239Z,26.50
2022-07-29T19:46:54.994Z,26.50
2022-07-29T19:49:58.173Z,26.40
2022-07-29T19:53:02.752Z,26.40
2022-07-29T19:56:06.566Z,26.40
2022-07-29T19:59:12.365Z,26.40
2022-07-29T20:02:16.586Z,26.40
2022-07-29T20:05:19.891Z,26.30
2022-07-29T20:08:24.404Z,26.20
2022-07-29T20:11:29.763Z,26.20
2022-07-29T20:14:33.049Z,26.10
2022-07-29T20:17:39.411Z,26.00
2022-07-29T20:20:43.541Z,25.90
2022-07-29T20:23:48.174Z,25.90
2022-07-29T20:26:51.674Z,25.80
2022-07-29T20:29:54.820Z,25.80
2022-07-29T20:32:57.950Z,25.70
2022-07-29T20:36:01.086Z,25.60
2022-07-29T20:39:05.680Z,25.40
2022-07-29T20:42:08.888Z,25.30
2022-07-29T20:45:12.190Z,25.10
2022-07-29T20:48:15.382Z,25.10
2022-07-29T20:51:18.576Z,24.90
2022-07-29T20:54:23.135Z,24.80
2022-07-29T20:57:38.834Z,24.70
2022-07-29T21:00:43.200Z,24.50
2022-07-29T21:03:46.673Z,24.50
2022-07-29T21:06:52.535Z,24.60
2022-07-29T21:09:57.105Z,24.60
2022-07-29T21:13:00.423Z,24.50
2022-07-29T21:16:09.141Z,24.50
2022-07-29T21:19:12.751Z,24.40
2022-07-29T21:22:15.912Z,24.20
2022-07-29T21:25:20.413Z,24.20
2022-07-29T21:28:27.525Z,24.20
2022-07-29T21:31:30.660Z,24.20
2022-07-29T21:34:34.152Z,24.10
2022-07-29T21:37:37.251Z,24.00
2022-07-29T21:40:41.726Z,24.00
2022-07-29T21:43:44.837Z,23.80
2022-07-29T21:46:47.922Z,23.60
2022-07-29T21:49:51.778Z,23.50
2022-07-29T21:52:54.966Z,23.30
2022-07-29T21:56:00.009Z,23.20
2022-07-29T21:59:03.153Z,23.30
2022-07-29T22:02:06.437Z,23.30
2022-07-29T22:05:10.667Z,23.40
2022-07-29T22:08:13.782Z,23.30
2022-07-29T22:11:18.317Z,23.40
2022-07-29T22:14:23.502Z,23.40
2022-07-29T22:17:26.690Z,23.50
2022-07-29T22:20:29.858Z,23.40
2022-07-29T22:23:33.007Z,23.30
2022-07-29T22:26:37.511Z,23.30
2022-07-29T22:29:40.849Z,23.20
2022-07-29T22:32:43.988Z,23.20
2022-07-29T22:35:48.870Z,23.10
2022-07-29T22:38:52.292Z,23.10
2022-07-29T22:41:56.759Z,23.20
2022-07-29T22:44:59.877Z,23.10
2022-07-29T22:48:03.082Z,23.20
2022-07-29T22:51:06.509Z,23.10
2022-07-29T22:54:09.697Z,23.10
2022-07-29T22:57:14.256Z,23.20
2022-07-29T23:00:17.617Z,23.10
2022-07-29T23:03:21.112Z,23.10
2022-07-29T23:06:24.255Z,23.10
2022-07-29T23:09:27.396Z,23.10
2022-07-29T23:12:31.879Z,23.10
2022-07-29T23:15:35.010Z,23.00
2022-07-29T23:18:39.231Z,23.00
2022-07-29T23:21:42.313Z,23.00
2022-07-29T23:24:45.576Z,23.00
2022-07-29T23:27:50.090Z,22.90
2022-07-29T23:30:53.266Z,22.90
2022-07-29T23:33:56.451Z,22.80
2022-07-29T23:37:00.109Z,22.80
2022-07-29T23:40:03.515Z,22.70
2022-07-29T23:43:08.883Z,22.60
2022-07-29T23:46:12.230Z,22.60
2022-07-29T23:49:18.584Z,22.60
2022-07-29T23:52:21.768Z,22.60
2022-07-29T23:55:37.957Z,22.50
2022-07-29T23:58:43.731Z,22.50
